sensor_id;sensor_type;location;lat;lon;timestamp;temperature;humidity
74359;DHT22;62792;46.236;6.040;2023-09-18T00:02:51;25.80;72.60
74359;DHT22;62792;46.236;6.040;2023-09-18T00:07:56;25.80;72.40
74359;DHT22;62792;46.236;6.040;2023-09-18T00:13:00;25.90;72.30
74359;DHT22;62792;46.236;6.040;2023-09-18T00:18:05;25.90;72.70
74359;DHT22;62792;46.236;6.040;2023-09-18T00:23:08;25.80;72.70
74359;DHT22;62792;46.236;6.040;2023-09-18T00:28:14;25.80;72.60
74359;DHT22;62792;46.236;6.040;2023-09-18T00:33:20;25.80;72.50
74359;DHT22;62792;46.236;6.040;2023-09-18T00:38:24;25.80;72.20
74359;DHT22;62792;46.236;6.040;2023-09-18T00:43:27;25.80;72.20
74359;DHT22;62792;46.236;6.040;2023-09-18T00:48:34;25.80;72.40
74359;DHT22;62792;46.236;6.040;2023-09-18T00:53:37;25.70;71.60
74359;DHT22;62792;46.236;6.040;2023-09-18T00:58:40;25.50;71.50
74359;DHT22;62792;46.236;6.040;2023-09-18T01:03:44;25.40;70.90
74359;DHT22;62792;46.236;6.040;2023-09-18T01:08:48;25.50;70.30
74359;DHT22;62792;46.236;6.040;2023-09-18T01:13:57;25.60;70.10
74359;DHT22;62792;46.236;6.040;2023-09-18T01:19:09;25.70;69.90
74359;DHT22;62792;46.236;6.040;2023-09-18T01:24:15;25.70;70.00
74359;DHT22;62792;46.236;6.040;2023-09-18T01:29:18;25.70;70.30
74359;DHT22;62792;46.236;6.040;2023-09-18T01:34:22;25.70;70.00
74359;DHT22;62792;46.236;6.040;2023-09-18T01:39:29;25.70;69.90
74359;DHT22;62792;46.236;6.040;2023-09-18T01:44:34;25.70;70.00
74359;DHT22;62792;46.236;6.040;2023-09-18T01:49:41;25.70;69.80
74359;DHT22;62792;46.236;6.040;2023-09-18T01:54:51;25.80;70.00
74359;DHT22;62792;46.236;6.040;2023-09-18T01:59:54;25.70;69.80
74359;DHT22;62792;46.236;6.040;2023-09-18T02:04:59;25.80;69.70
74359;DHT22;62792;46.236;6.040;2023-09-18T02:10:11;25.70;70.00
74359;DHT22;62792;46.236;6.040;2023-09-18T02:15:17;25.70;69.90
74359;DHT22;62792;46.236;6.040;2023-09-18T02:20:21;25.70;69.80
74359;DHT22;62792;46.236;6.040;2023-09-18T02:25:25;25.70;70.00
74359;DHT22;62792;46.236;6.040;2023-09-18T02:30:28;25.80;69.80
74359;DHT22;62792;46.236;6.040;2023-09-18T02:35:32;25.70;70.00
74359;DHT22;62792;46.236;6.040;2023-09-18T02:40:37;25.70;69.30
74359;DHT22;62792;46.236;6.040;2023-09-18T02:45:40;25.80;69.50
74359;DHT22;62792;46.236;6.040;2023-09-18T02:50:46;25.70;69.30
74359;DHT22;62792;46.236;6.040;2023-09-18T02:55:52;25.70;69.30
74359;DHT22;62792;46.236;6.040;2023-09-18T03:00:55;25.70;69.30
74359;DHT22;62792;46.236;6.040;2023-09-18T03:06:00;25.70;69.20
74359;DHT22;62792;46.236;6.040;2023-09-18T03:11:04;25.70;69.50
74359;DHT22;62792;46.236;6.040;2023-09-18T03:16:13;25.70;69.60
74359;DHT22;62792;46.236;6.040;2023-09-18T03:21:16;25.70;69.40
74359;DHT22;62792;46.236;6.040;2023-09-18T03:26:20;25.70;70.00
74359;DHT22;62792;46.236;6.040;2023-09-18T03:31:24;25.70;69.80
74359;DHT22;62792;46.236;6.040;2023-09-18T03:36:29;25.70;69.90
74359;DHT22;62792;46.236;6.040;2023-09-18T03:41:35;25.70;69.90
74359;DHT22;62792;46.236;6.040;2023-09-18T03:46:38;25.70;70.30
74359;DHT22;62792;46.236;6.040;2023-09-18T03:51:41;25.70;69.60
74359;DHT22;62792;46.236;6.040;2023-09-18T03:56:47;25.50;69.70
74359;DHT22;62792;46.236;6.040;2023-09-18T04:01:50;25.50;69.50
74359;DHT22;62792;46.236;6.040;2023-09-18T04:06:53;25.60;69.00
74359;DHT22;62792;46.236;6.040;2023-09-18T04:11:57;25.40;67.90
74359;DHT22;62792;46.236;6.040;2023-09-18T04:17:00;25.40;66.70
74359;DHT22;62792;46.236;6.040;2023-09-18T04:22:03;25.40;67.40
74359;DHT22;62792;46.236;6.040;2023-09-18T04:27:07;25.40;67.00
74359;DHT22;62792;46.236;6.040;2023-09-18T04:32:11;25.40;66.90
74359;DHT22;62792;46.236;6.040;2023-09-18T04:37:17;25.50;65.90
74359;DHT22;62792;46.236;6.040;2023-09-18T04:42:21;25.50;66.00
74359;DHT22;62792;46.236;6.040;2023-09-18T04:47:24;25.50;66.30
74359;DHT22;62792;46.236;6.040;2023-09-18T04:52:27;25.50;66.20
74359;DHT22;62792;46.236;6.040;2023-09-18T04:57:31;25.50;66.20
74359;DHT22;62792;46.236;6.040;2023-09-18T05:02:35;25.50;66.20
74359;DHT22;62792;46.236;6.040;2023-09-18T05:07:38;25.50;66.20
74359;DHT22;62792;46.236;6.040;2023-09-18T05:12:43;25.50;66.30
74359;DHT22;62792;46.236;6.040;2023-09-18T05:17:46;25.50;66.60
74359;DHT22;62792;46.236;6.040;2023-09-18T05:22:54;25.50;66.70
74359;DHT22;62792;46.236;6.040;2023-09-18T05:27:59;25.40;67.00
74359;DHT22;62792;46.236;6.040;2023-09-18T05:33:03;25.50;67.10
74359;DHT22;62792;46.236;6.040;2023-09-18T05:38:07;25.50;67.10
74359;DHT22;62792;46.236;6.040;2023-09-18T05:43:12;25.50;67.30
74359;DHT22;62792;46.236;6.040;2023-09-18T05:48:16;25.50;67.70
74359;DHT22;62792;46.236;6.040;2023-09-18T05:53:19;25.40;67.60
74359;DHT22;62792;46.236;6.040;2023-09-18T05:58:23;25.40;67.80
74359;DHT22;62792;46.236;6.040;2023-09-18T06:03:28;25.50;68.00
74359;DHT22;62792;46.236;6.040;2023-09-18T06:08:32;25.50;68.00
74359;DHT22;62792;46.236;6.040;2023-09-18T06:13:36;25.50;68.20
74359;DHT22;62792;46.236;6.040;2023-09-18T06:18:39;25.50;68.20
74359;DHT22;62792;46.236;6.040;2023-09-18T06:23:43;25.50;68.20
74359;DHT22;62792;46.236;6.040;2023-09-18T06:28:47;25.40;68.70
74359;DHT22;62792;46.236;6.040;2023-09-18T06:33:52;25.50;68.50
74359;DHT22;62792;46.236;6.040;2023-09-18T06:38:55;25.50;68.80
74359;DHT22;62792;46.236;6.040;2023-09-18T06:44:00;25.50;69.10
74359;DHT22;62792;46.236;6.040;2023-09-18T06:49:05;25.50;68.90
74359;DHT22;62792;46.236;6.040;2023-09-18T06:54:08;25.40;69.50
74359;DHT22;62792;46.236;6.040;2023-09-18T06:59:12;25.50;69.20
74359;DHT22;62792;46.236;6.040;2023-09-18T07:04:15;25.40;69.60
74359;DHT22;62792;46.236;6.040;2023-09-18T07:09:18;25.30;71.20
74359;DHT22;62792;46.236;6.040;2023-09-18T07:14:25;25.20;72.00
74359;DHT22;62792;46.236;6.040;2023-09-18T07:19:29;25.30;72.00
74359;DHT22;62792;46.236;6.040;2023-09-18T07:24:32;25.30;72.50
74359;DHT22;62792;46.236;6.040;2023-09-18T07:29:36;25.40;72.50
74359;DHT22;62792;46.236;6.040;2023-09-18T07:34:39;25.50;72.40
74359;DHT22;62792;46.236;6.040;2023-09-18T07:39:44;25.60;71.90
74359;DHT22;62792;46.236;6.040;2023-09-18T07:44:49;25.60;71.90
74359;DHT22;62792;46.236;6.040;2023-09-18T07:49:52;25.60;72.30
74359;DHT22;62792;46.236;6.040;2023-09-18T07:54:56;25.50;72.30
74359;DHT22;62792;46.236;6.040;2023-09-18T08:00:02;25.60;72.20
74359;DHT22;62792;46.236;6.040;2023-09-18T08:05:09;25.60;72.10
74359;DHT22;62792;46.236;6.040;2023-09-18T08:10:12;25.80;72.40
74359;DHT22;62792;46.236;6.040;2023-09-18T08:15:16;25.80;72.50
74359;DHT22;62792;46.236;6.040;2023-09-18T08:20:19;25.90;71.90
74359;DHT22;62792;46.236;6.040;2023-09-18T08:25:22;25.90;72.20
74359;DHT22;62792;46.236;6.040;2023-09-18T08:30:27;25.90;72.60
74359;DHT22;62792;46.236;6.040;2023-09-18T08:35:30;25.90;72.50
74359;DHT22;62792;46.236;6.040;2023-09-18T08:40:33;26.00;72.40
74359;DHT22;62792;46.236;6.040;2023-09-18T08:45:40;26.10;72.00
74359;DHT22;62792;46.236;6.040;2023-09-18T08:50:47;26.10;71.50
74359;DHT22;62792;46.236;6.040;2023-09-18T08:55:50;26.20;72.10
74359;DHT22;62792;46.236;6.040;2023-09-18T09:01:00;26.20;71.40
74359;DHT22;62792;46.236;6.040;2023-09-18T09:06:05;26.20;71.70
74359;DHT22;62792;46.236;6.040;2023-09-18T09:11:09;26.30;72.10
74359;DHT22;62792;46.236;6.040;2023-09-18T09:16:13;26.40;70.50
74359;DHT22;62792;46.236;6.040;2023-09-18T09:21:17;26.40;70.40
74359;DHT22;62792;46.236;6.040;2023-09-18T09:26:20;26.40;70.40
74359;DHT22;62792;46.236;6.040;2023-09-18T09:31:27;26.50;70.20
74359;DHT22;62792;46.236;6.040;2023-09-18T09:36:32;26.50;70.20
74359;DHT22;62792;46.236;6.040;2023-09-18T09:41:35;26.50;69.60
74359;DHT22;62792;46.236;6.040;2023-09-18T09:46:40;26.50;69.30
74359;DHT22;62792;46.236;6.040;2023-09-18T09:51:48;26.60;69.10
74359;DHT22;62792;46.236;6.040;2023-09-18T09:56:50;26.50;69.10
74359;DHT22;62792;46.236;6.040;2023-09-18T10:01:56;26.40;69.00
74359;DHT22;62792;46.236;6.040;2023-09-18T10:07:05;26.40;68.90
74359;DHT22;62792;46.236;6.040;2023-09-18T10:12:10;26.50;68.80
74359;DHT22;62792;46.236;6.040;2023-09-18T10:17:16;26.50;68.60
74359;DHT22;62792;46.236;6.040;2023-09-18T10:22:23;26.40;68.90
74359;DHT22;62792;46.236;6.040;2023-09-18T10:27:28;26.30;70.00
74359;DHT22;62792;46.236;6.040;2023-09-18T10:32:34;26.40;68.80
74359;DHT22;62792;46.236;6.040;2023-09-18T10:37:37;26.40;68.80
74359;DHT22;62792;46.236;6.040;2023-09-18T10:42:41;26.50;68.40
74359;DHT22;62792;46.236;6.040;2023-09-18T10:47:46;26.50;68.60
74359;DHT22;62792;46.236;6.040;2023-09-18T10:52:49;26.40;68.40
74359;DHT22;62792;46.236;6.040;2023-09-18T10:57:53;26.40;68.50
74359;DHT22;62792;46.236;6.040;2023-09-18T11:03:10;26.40;68.10
74359;DHT22;62792;46.236;6.040;2023-09-18T11:08:23;26.40;68.30
74359;DHT22;62792;46.236;6.040;2023-09-18T11:13:28;26.40;68.50
74359;DHT22;62792;46.236;6.040;2023-09-18T11:18:33;26.40;68.30
74359;DHT22;62792;46.236;6.040;2023-09-18T11:23:37;26.40;68.50
74359;DHT22;62792;46.236;6.040;2023-09-18T11:28:44;26.30;69.60
74359;DHT22;62792;46.236;6.040;2023-09-18T11:33:52;26.40;68.70
74359;DHT22;62792;46.236;6.040;2023-09-18T11:38:56;26.40;68.60
74359;DHT22;62792;46.236;6.040;2023-09-18T11:49:48;26.40;68.80
74359;DHT22;62792;46.236;6.040;2023-09-18T11:54:56;26.40;69.30
74359;DHT22;62792;46.236;6.040;2023-09-18T12:00:00;26.40;69.50
74359;DHT22;62792;46.236;6.040;2023-09-18T12:05:15;26.40;69.50
74359;DHT22;62792;46.236;6.040;2023-09-18T12:10:19;26.50;69.20
74359;DHT22;62792;46.236;6.040;2023-09-18T12:15:23;26.50;69.30
74359;DHT22;62792;46.236;6.040;2023-09-18T12:20:28;26.60;69.30
74359;DHT22;62792;46.236;6.040;2023-09-18T12:25:31;26.60;68.80
74359;DHT22;62792;46.236;6.040;2023-09-18T12:30:34;26.60;68.80
74359;DHT22;62792;46.236;6.040;2023-09-18T12:35:38;26.60;69.10
74359;DHT22;62792;46.236;6.040;2023-09-18T12:40:42;26.50;68.80
74359;DHT22;62792;46.236;6.040;2023-09-18T12:45:48;26.60;68.60
74359;DHT22;62792;46.236;6.040;2023-09-18T12:50:53;26.60;68.90
74359;DHT22;62792;46.236;6.040;2023-09-18T12:56:04;26.70;68.70
74359;DHT22;62792;46.236;6.040;2023-09-18T13:01:08;26.60;68.60
74359;DHT22;62792;46.236;6.040;2023-09-18T13:06:16;26.60;68.40
74359;DHT22;62792;46.236;6.040;2023-09-18T13:11:20;26.50;68.30
74359;DHT22;62792;46.236;6.040;2023-09-18T13:16:23;26.60;68.10
74359;DHT22;62792;46.236;6.040;2023-09-18T13:21:28;26.60;68.30
74359;DHT22;62792;46.236;6.040;2023-09-18T13:26:31;26.50;68.20
74359;DHT22;62792;46.236;6.040;2023-09-18T13:31:34;26.50;68.10
74359;DHT22;62792;46.236;6.040;2023-09-18T13:36:38;26.50;68.10
74359;DHT22;62792;46.236;6.040;2023-09-18T13:41:42;26.60;67.30
74359;DHT22;62792;46.236;6.040;2023-09-18T13:46:46;26.60;67.70
74359;DHT22;62792;46.236;6.040;2023-09-18T13:51:50;26.70;67.10
74359;DHT22;62792;46.236;6.040;2023-09-18T13:56:53;26.70;67.30
74359;DHT22;62792;46.236;6.040;2023-09-18T14:01:58;26.70;66.80
74359;DHT22;62792;46.236;6.040;2023-09-18T14:07:03;26.80;66.50
74359;DHT22;62792;46.236;6.040;2023-09-18T14:12:06;26.70;65.80
74359;DHT22;62792;46.236;6.040;2023-09-18T14:17:10;26.70;65.70
74359;DHT22;62792;46.236;6.040;2023-09-18T14:22:15;26.70;65.60
74359;DHT22;62792;46.236;6.040;2023-09-18T14:27:18;26.80;65.30
74359;DHT22;62792;46.236;6.040;2023-09-18T14:32:21;26.90;64.60
74359;DHT22;62792;46.236;6.040;2023-09-18T14:37:26;26.90;64.10
74359;DHT22;62792;46.236;6.040;2023-09-18T14:42:29;27.20;63.60
74359;DHT22;62792;46.236;6.040;2023-09-18T14:47:32;27.40;63.30
74359;DHT22;62792;46.236;6.040;2023-09-18T14:52:37;27.70;62.90
74359;DHT22;62792;46.236;6.040;2023-09-18T14:57:40;28.00;62.30
74359;DHT22;62792;46.236;6.040;2023-09-18T15:02:43;27.90;62.30
74359;DHT22;62792;46.236;6.040;2023-09-18T15:07:47;27.80;62.30
74359;DHT22;62792;46.236;6.040;2023-09-18T15:12:50;27.70;62.50
74359;DHT22;62792;46.236;6.040;2023-09-18T15:17:53;27.50;62.20
74359;DHT22;62792;46.236;6.040;2023-09-18T15:22:58;27.60;62.60
74359;DHT22;62792;46.236;6.040;2023-09-18T15:28:01;27.70;62.50
74359;DHT22;62792;46.236;6.040;2023-09-18T15:33:04;27.60;62.80
74359;DHT22;62792;46.236;6.040;2023-09-18T15:38:08;27.50;63.00
74359;DHT22;62792;46.236;6.040;2023-09-18T15:43:12;27.60;62.90
74359;DHT22;62792;46.236;6.040;2023-09-18T15:48:15;27.50;62.90
74359;DHT22;62792;46.236;6.040;2023-09-18T15:53:20;27.60;62.70
74359;DHT22;62792;46.236;6.040;2023-09-18T15:58:23;27.70;62.80
74359;DHT22;62792;46.236;6.040;2023-09-18T16:03:27;27.70;62.60
74359;DHT22;62792;46.236;6.040;2023-09-18T16:08:31;27.90;62.50
74359;DHT22;62792;46.236;6.040;2023-09-18T16:13:34;28.20;62.10
74359;DHT22;62792;46.236;6.040;2023-09-18T16:18:38;28.60;61.40
74359;DHT22;62792;46.236;6.040;2023-09-18T16:23:43;29.00;60.90
74359;DHT22;62792;46.236;6.040;2023-09-18T16:28:45;29.30;58.60
74359;DHT22;62792;46.236;6.040;2023-09-18T16:33:49;29.40;58.20
74359;DHT22;62792;46.236;6.040;2023-09-18T16:38:53;29.50;58.00
74359;DHT22;62792;46.236;6.040;2023-09-18T16:43:57;29.40;58.30
74359;DHT22;62792;46.236;6.040;2023-09-18T16:49:00;29.00;60.10
74359;DHT22;62792;46.236;6.040;2023-09-18T16:54:05;28.60;60.80
74359;DHT22;62792;46.236;6.040;2023-09-18T16:59:16;28.30;61.50
74359;DHT22;62792;46.236;6.040;2023-09-18T17:04:19;28.20;61.50
74359;DHT22;62792;46.236;6.040;2023-09-18T17:09:23;28.00;62.00
74359;DHT22;62792;46.236;6.040;2023-09-18T17:14:26;27.70;62.30
74359;DHT22;62792;46.236;6.040;2023-09-18T17:19:30;27.60;62.60
74359;DHT22;62792;46.236;6.040;2023-09-18T17:24:34;27.50;62.70
74359;DHT22;62792;46.236;6.040;2023-09-18T17:29:39;27.40;63.00
74359;DHT22;62792;46.236;6.040;2023-09-18T17:34:42;27.30;63.20
74359;DHT22;62792;46.236;6.040;2023-09-18T17:39:46;27.20;63.50
74359;DHT22;62792;46.236;6.040;2023-09-18T17:44:49;27.10;63.60
74359;DHT22;62792;46.236;6.040;2023-09-18T17:49:52;27.10;63.70
74359;DHT22;62792;46.236;6.040;2023-09-18T17:54:56;26.90;64.00
74359;DHT22;62792;46.236;6.040;2023-09-18T17:59:59;26.80;64.20
74359;DHT22;62792;46.236;6.040;2023-09-18T18:05:04;26.80;64.00
74359;DHT22;62792;46.236;6.040;2023-09-18T18:10:11;26.80;64.20
74359;DHT22;62792;46.236;6.040;2023-09-18T18:15:14;26.80;64.20
74359;DHT22;62792;46.236;6.040;2023-09-18T18:20:17;26.70;64.30
74359;DHT22;62792;46.236;6.040;2023-09-18T18:25:26;26.60;64.20
74359;DHT22;62792;46.236;6.040;2023-09-18T18:30:28;26.70;64.60
74359;DHT22;62792;46.236;6.040;2023-09-18T18:35:31;26.50;64.70
74359;DHT22;62792;46.236;6.040;2023-09-18T18:40:36;26.60;64.70
74359;DHT22;62792;46.236;6.040;2023-09-18T18:45:42;26.50;64.60
74359;DHT22;62792;46.236;6.040;2023-09-18T18:50:46;26.40;64.80
74359;DHT22;62792;46.236;6.040;2023-09-18T18:55:51;26.40;64.80
74359;DHT22;62792;46.236;6.040;2023-09-18T19:00:57;26.30;65.90
74359;DHT22;62792;46.236;6.040;2023-09-18T19:06:02;26.30;66.10
74359;DHT22;62792;46.236;6.040;2023-09-18T19:11:07;26.40;65.70
74359;DHT22;62792;46.236;6.040;2023-09-18T19:16:11;26.30;65.90
74359;DHT22;62792;46.236;6.040;2023-09-18T19:21:16;26.30;66.10
74359;DHT22;62792;46.236;6.040;2023-09-18T19:26:20;26.20;66.10
74359;DHT22;62792;46.236;6.040;2023-09-18T19:31:24;26.30;66.30
74359;DHT22;62792;46.236;6.040;2023-09-18T19:36:27;26.20;66.10
74359;DHT22;62792;46.236;6.040;2023-09-18T19:41:31;26.20;66.10
74359;DHT22;62792;46.236;6.040;2023-09-18T19:46:34;26.20;66.20
74359;DHT22;62792;46.236;6.040;2023-09-18T19:51:38;26.20;66.10
74359;DHT22;62792;46.236;6.040;2023-09-18T19:56:43;26.10;66.10
74359;DHT22;62792;46.236;6.040;2023-09-18T20:01:46;26.20;66.10
74359;DHT22;62792;46.236;6.040;2023-09-18T20:06:49;26.10;66.00
74359;DHT22;62792;46.236;6.040;2023-09-18T20:11:55;26.10;66.30
74359;DHT22;62792;46.236;6.040;2023-09-18T20:17:01;26.10;66.10
74359;DHT22;62792;46.236;6.040;2023-09-18T20:22:04;26.10;66.10
74359;DHT22;62792;46.236;6.040;2023-09-18T20:27:08;26.00;66.20
74359;DHT22;62792;46.236;6.040;2023-09-18T20:32:12;26.00;66.20
74359;DHT22;62792;46.236;6.040;2023-09-18T20:37:15;26.00;66.30
74359;DHT22;62792;46.236;6.040;2023-09-18T20:42:19;26.00;66.40
74359;DHT22;62792;46.236;6.040;2023-09-18T20:47:23;26.00;66.00
74359;DHT22;62792;46.236;6.040;2023-09-18T20:52:27;26.00;65.90
74359;DHT22;62792;46.236;6.040;2023-09-18T20:57:31;25.90;66.20
74359;DHT22;62792;46.236;6.040;2023-09-18T21:02:34;26.00;66.30
74359;DHT22;62792;46.236;6.040;2023-09-18T21:07:37;25.90;66.40
74359;DHT22;62792;46.236;6.040;2023-09-18T21:12:42;25.90;66.10
74359;DHT22;62792;46.236;6.040;2023-09-18T21:17:45;25.90;66.20
74359;DHT22;62792;46.236;6.040;2023-09-18T21:22:48;25.80;66.30
74359;DHT22;62792;46.236;6.040;2023-09-18T21:27:53;25.90;66.20
74359;DHT22;62792;46.236;6.040;2023-09-18T21:33:01;25.80;66.30
74359;DHT22;62792;46.236;6.040;2023-09-18T21:38:06;25.90;66.40
74359;DHT22;62792;46.236;6.040;2023-09-18T21:43:10;25.80;66.30
74359;DHT22;62792;46.236;6.040;2023-09-18T21:48:13;25.90;66.60
74359;DHT22;62792;46.236;6.040;2023-09-18T21:53:16;25.80;66.30
74359;DHT22;62792;46.236;6.040;2023-09-18T21:58:20;25.90;66.50
74359;DHT22;62792;46.236;6.040;2023-09-18T22:03:23;25.80;66.30
74359;DHT22;62792;46.236;6.040;2023-09-18T22:08:27;25.70;66.60
74359;DHT22;62792;46.236;6.040;2023-09-18T22:13:31;25.90;66.40
74359;DHT22;62792;46.236;6.040;2023-09-18T22:18:34;25.80;66.30
74359;DHT22;62792;46.236;6.040;2023-09-18T22:23:37;25.70;66.60
74359;DHT22;62792;46.236;6.040;2023-09-18T22:28:42;25.80;66.30
74359;DHT22;62792;46.236;6.040;2023-09-18T22:33:44;25.70;66.40
74359;DHT22;62792;46.236;6.040;2023-09-18T22:38:50;25.70;66.40
74359;DHT22;62792;46.236;6.040;2023-09-18T22:55:19;25.80;66.70
74359;DHT22;62792;46.236;6.040;2023-09-18T23:00:23;25.70;66.40
74359;DHT22;62792;46.236;6.040;2023-09-18T23:05:31;25.70;66.70
74359;DHT22;62792;46.236;6.040;2023-09-18T23:10:38;25.70;66.40
74359;DHT22;62792;46.236;6.040;2023-09-18T23:15:42;25.70;66.50
74359;DHT22;62792;46.236;6.040;2023-09-18T23:20:45;25.70;66.70
74359;DHT22;62792;46.236;6.040;2023-09-18T23:25:54;25.70;66.60
74359;DHT22;62792;46.236;6.040;2023-09-18T23:30:57;25.60;66.70
74359;DHT22;62792;46.236;6.040;2023-09-18T23:36:00;25.60;66.60
74359;DHT22;62792;46.236;6.040;2023-09-18T23:41:05;25.70;66.50
74359;DHT22;62792;46.236;6.040;2023-09-18T23:46:10;25.70;66.60
74359;DHT22;62792;46.236;6.040;2023-09-18T23:51:15;25.60;66.40
74359;DHT22;62792;46.236;6.040;2023-09-18T23:56:20;25.60;66.60
